Sea Jay — WDE8232 — position and weather

sailwx.info

Track history (hours):
 
Tides and Currents Weather Stations Pressure Air Temp Water Temp Dewpoint Dewpoint Depression Visibility Wind Speed Wind Dir Waves Ship Positions

Sea Jay

Owner: Matheson, James K, Everett, WA. More information available from US FCC via Universal Licensing System and Coast Guard Vessel Documentation Center.

Last reported at 2017-Jul-20 19:29 UTC. Time now 2017-Aug-18 20:14 UTC.
Position N 51°50' W 127°59'.
Warning: this ship's position is 29 days out of date.

Length 21 m.

Type: Pleasure craft. MMSI: 367403070.

Date/timePositionNaut miles runAvg speedWind from/ knotsBaromVisibWave heightAir tempDewpointWater temp
2017-Jul-20 19:29N 51°50' W 127°59'4 8.9
2017-Jul-20 19:00N 51°46' W 128°00'1 2.7
2017-Jul-20 18:29N 51°45' W 128°02'0 0.0
2017-Jul-20 17:59N 51°45' W 128°02'0 0.0
2017-Jul-20 17:29N 51°45' W 128°02'0 0.0
2017-Jul-20 16:58N 51°45' W 128°02'0 0.1
2017-Jul-20 16:22N 51°45' W 128°02'0 0.0
2017-Jul-20 15:58N 51°45' W 128°02'0 0.0
2017-Jul-20 15:28N 51°45' W 128°02'0 0.1
2017-Jul-20 14:59N 51°45' W 128°02'0 0.0
2017-Jul-20 13:58N 51°45' W 128°02'0 0.0
2017-Jul-20 13:28N 51°45' W 128°02'0 0.0
2017-Jul-20 12:58N 51°45' W 128°02'0 0.0
2017-Jul-20 12:25N 51°45' W 128°02'0 0.0
2017-Jul-20 11:58N 51°45' W 128°02'0 0.0
2017-Jul-20 11:29N 51°45' W 128°02'0 0.0
2017-Jul-20 10:58N 51°45' W 128°02'0 0.0
2017-Jul-20 10:28N 51°45' W 128°02'0 0.0
2017-Jul-20 09:58N 51°45' W 128°02'0 0.0
2017-Jul-20 09:28N 51°45' W 128°02'0 0.0
2017-Jul-20 08:58N 51°45' W 128°02'0 0.0
2017-Jul-20 08:29N 51°45' W 128°02'0 0.0
2017-Jul-20 07:58N 51°45' W 128°02'0 0.0
2017-Jul-20 07:29N 51°45' W 128°02'0 0.0
2017-Jul-20 06:58N 51°45' W 128°02'0 0.0
2017-Jul-20 06:22N 51°45' W 128°02'0 0.0
2017-Jul-20 05:58N 51°45' W 128°02'0 0.0
2017-Jul-20 05:28N 51°45' W 128°02'0 0.0
2017-Jul-20 04:59N 51°45' W 128°02'0 0.0
2017-Jul-20 04:28N 51°45' W 128°02'0 0.0
2017-Jul-20 03:59N 51°45' W 128°02'0 0.1
2017-Jul-20 03:28N 51°45' W 128°02'0 0.0
2017-Jul-20 02:59N 51°45' W 128°02'0 0.0
2017-Jul-20 02:29N 51°45' W 128°02'0 0.0
2017-Jul-20 01:59N 51°45' W 128°02'0 0.0
2017-Jul-20 01:28N 51°45' W 128°02'0 0.0
2017-Jul-20 00:58N 51°45' W 128°02'0 0.0
2017-Jul-20 00:29N 51°45' W 128°02'0 0.0
2017-Jul-19 23:58N 51°45' W 128°02'0 0.0
2017-Jul-19 23:28N 51°45' W 128°02'0 0.0
2017-Jul-19 22:58N 51°45' W 128°02'0 0.0
2017-Jul-19 22:28N 51°45' W 128°02'0 0.0
2017-Jul-19 21:59N 51°45' W 128°02'0 0.0
2017-Jul-19 21:28N 51°45' W 128°02'0 0.3
2017-Jul-19 21:00N 51°45' W 128°02'4 7.3
2017-Jul-19 20:30N 51°42' W 127°58'5 9.3
2017-Jul-19 20:00N 51°38' W 127°55'5 9.2
2017-Jul-19 19:30N 51°34' W 127°51'5 9.5
2017-Jul-19 19:00N 51°30' W 127°48'5 9.0
2017-Jul-19 18:26N 51°27' W 127°41'5 0.3
2017-Jul-19 00:04N 51°30' W 127°36'0 7.3
2017-Jul-19 00:00N 51°29' W 127°36'610.9
2017-Jul-18 23:27N 51°25' W 127°43'18 9.2
2017-Jul-18 21:32N 51°08' W 127°45'110.4
2017-Jul-18 21:24N 51°07' W 127°44'510.9
2017-Jul-18 20:58N 51°03' W 127°39'511.0
2017-Jul-18 20:30N 50°59' W 127°34'611.2
2017-Jul-18 20:00N 50°55' W 127°28'611.5
2017-Jul-18 19:30N 50°50' W 127°23'  
2017-Jul-15 17:29N 50°45' W 127°18'4 8.8
2017-Jul-15 16:59N 50°49' W 127°22'4 8.8
2017-Jul-15 16:29N 50°52' W 127°26'4 7.7
2017-Jul-15 15:59N 50°54' W 127°31'1 0.9
2017-Jul-15 15:25N 50°54' W 127°32'0 0.0
2017-Jul-15 14:55N 50°54' W 127°32'0 0.0
2017-Jul-15 13:55N 50°54' W 127°32'0 0.0
2017-Jul-15 13:25N 50°54' W 127°32'0 0.0
2017-Jul-15 12:55N 50°54' W 127°32'0 0.0
2017-Jul-15 12:19N 50°54' W 127°32'0 0.0
2017-Jul-15 11:55N 50°54' W 127°32'0 0.0
2017-Jul-15 11:25N 50°54' W 127°32'0 0.0
2017-Jul-15 10:55N 50°54' W 127°32'0 0.0
2017-Jul-15 10:25N 50°54' W 127°32'0 0.0
2017-Jul-15 09:55N 50°54' W 127°32'0 0.0
2017-Jul-15 09:25N 50°54' W 127°32'0 0.0
2017-Jul-15 08:55N 50°54' W 127°32'0 0.0
2017-Jul-15 08:25N 50°54' W 127°32'0 0.0
2017-Jul-15 07:49N 50°54' W 127°32'0 0.0
2017-Jul-15 07:25N 50°54' W 127°32'0 0.0
2017-Jul-15 06:55N 50°54' W 127°32'0 0.0
2017-Jul-15 06:25N 50°54' W 127°32'0 0.0
2017-Jul-15 05:55N 50°54' W 127°32'0 0.0
2017-Jul-15 05:25N 50°54' W 127°32'0 0.0
2017-Jul-15 04:55N 50°54' W 127°32'0 0.0
2017-Jul-15 04:25N 50°54' W 127°32'0 0.0
2017-Jul-15 03:49N 50°54' W 127°32'0 0.0
2017-Jul-15 03:19N 50°54' W 127°32'0 0.0
2017-Jul-15 02:55N 50°54' W 127°32'0 0.0
2017-Jul-15 02:19N 50°54' W 127°32'0 0.0
2017-Jul-15 01:55N 50°54' W 127°32'0 0.0
2017-Jul-15 01:25N 50°54' W 127°32'0 0.0
2017-Jul-15 00:55N 50°54' W 127°32'0 0.0
2017-Jul-15 00:25N 50°54' W 127°32'0 0.0
2017-Jul-14 23:55N 50°54' W 127°32'0 0.0
2017-Jul-14 23:25N 50°54' W 127°32'0 0.0
2017-Jul-14 22:55N 50°54' W 127°32'0 0.0
2017-Jul-14 22:25N 50°54' W 127°32'0 0.0
2017-Jul-14 21:55N 50°54' W 127°32'0 0.0
2017-Jul-14 21:19N 50°54' W 127°32'0 0.0
2017-Jul-14 20:55N 50°54' W 127°32'0 0.0
2017-Jul-14 20:25N 50°54' W 127°32'0 0.0
2017-Jul-14 19:55N 50°54' W 127°32'0 0.0
2017-Jul-14 19:25N 50°54' W 127°32'0 0.0
2017-Jul-14 18:55N 50°54' W 127°32'0 0.0
2017-Jul-14 18:25N 50°54' W 127°32'0 0.0
2017-Jul-14 17:55N 50°54' W 127°32'0 0.0
2017-Jul-14 17:25N 50°54' W 127°32'0 0.0
2017-Jul-14 16:55N 50°54' W 127°32'0 0.0
2017-Jul-14 16:19N 50°54' W 127°32'0 0.0
2017-Jul-14 15:55N 50°54' W 127°32'0 0.0
2017-Jul-14 15:25N 50°54' W 127°32'0 0.0
2017-Jul-14 14:43N 50°54' W 127°32'0 0.0
2017-Jul-14 14:25N 50°54' W 127°32'0 0.0
2017-Jul-14 13:55N 50°54' W 127°32'0 0.0
2017-Jul-14 13:25N 50°54' W 127°32'0 0.0
2017-Jul-14 12:55N 50°54' W 127°32'0 0.0
2017-Jul-14 12:25N 50°54' W 127°32'0 0.0
2017-Jul-14 11:55N 50°54' W 127°32'0 0.0
2017-Jul-14 11:25N 50°54' W 127°32'0 0.0
2017-Jul-14 10:55N 50°54' W 127°32'0 0.0
2017-Jul-14 10:25N 50°54' W 127°32'0 0.0
2017-Jul-14 09:55N 50°54' W 127°32'0 0.0
2017-Jul-14 09:13N 50°54' W 127°32'0 0.0
2017-Jul-14 08:55N 50°54' W 127°32'0 0.0
2017-Jul-14 08:25N 50°54' W 127°32'0 0.0
2017-Jul-14 07:55N 50°54' W 127°32'0 0.0
2017-Jul-14 07:25N 50°54' W 127°32'0 0.0
2017-Jul-14 06:55N 50°54' W 127°32'0 0.0
2017-Jul-14 06:19N 50°54' W 127°32'0 0.0
2017-Jul-14 05:55N 50°54' W 127°32'0 0.0
2017-Jul-14 05:25N 50°54' W 127°32'0 0.0
2017-Jul-14 04:55N 50°54' W 127°32'0 0.0
2017-Jul-14 04:25N 50°54' W 127°32'0 0.0
2017-Jul-14 03:55N 50°54' W 127°32'0 0.0
2017-Jul-14 03:25N 50°54' W 127°32'0 0.0
2017-Jul-14 02:55N 50°54' W 127°32'0 0.0
2017-Jul-14 02:25N 50°54' W 127°32'0 0.0
2017-Jul-14 01:55N 50°54' W 127°32'0 0.0
2017-Jul-14 01:25N 50°54' W 127°32'0 0.0
2017-Jul-14 00:55N 50°54' W 127°32'0 0.0
2017-Jul-14 00:25N 50°54' W 127°32'0 0.0
2017-Jul-13 23:55N 50°54' W 127°32'0 0.0
2017-Jul-13 23:25N 50°54' W 127°32'0 0.0
2017-Jul-13 22:55N 50°54' W 127°32'0 0.0
2017-Jul-13 22:25N 50°54' W 127°32'0 0.5
2017-Jul-13 22:01N 50°54' W 127°32'3 5.0
2017-Jul-13 21:30N 50°55' W 127°36'4 8.5
2017-Jul-13 21:00N 50°55' W 127°43'  
2017-Jul-11 15:34N 50°31' W 128°02'0 0.0
2017-Jul-11 15:28N 50°31' W 128°02'0 0.0
2017-Jul-11 14:58N 50°31' W 128°02'0 0.0
2017-Jul-11 14:28N 50°31' W 128°02'0 0.0
2017-Jul-11 13:55N 50°31' W 128°02'0 0.0
2017-Jul-11 13:28N 50°31' W 128°02'0 0.0
2017-Jul-11 12:58N 50°31' W 128°02'0 0.0
2017-Jul-11 12:28N 50°31' W 128°02'0 0.0
2017-Jul-11 11:58N 50°31' W 128°02'0 0.0
2017-Jul-11 11:28N 50°31' W 128°02'0 0.0
2017-Jul-11 10:58N 50°31' W 128°02'0 0.0
2017-Jul-11 10:22N 50°31' W 128°02'0 0.0
2017-Jul-11 09:58N 50°31' W 128°02'0 0.0
2017-Jul-11 09:28N 50°31' W 128°02'0 0.0
2017-Jul-11 08:58N 50°31' W 128°02'0 0.0
2017-Jul-11 08:28N 50°31' W 128°02'0 0.0
2017-Jul-11 07:58N 50°31' W 128°02'0 0.0
2017-Jul-11 07:28N 50°31' W 128°02'0 0.0
2017-Jul-11 06:58N 50°31' W 128°02'0 0.0
2017-Jul-11 06:28N 50°31' W 128°02'0 0.0
2017-Jul-11 05:55N 50°31' W 128°02'0 0.0
2017-Jul-11 05:28N 50°31' W 128°02'0 0.0
2017-Jul-11 04:58N 50°31' W 128°02'0 0.0
2017-Jul-11 04:28N 50°31' W 128°02'0 0.0
2017-Jul-11 03:58N 50°31' W 128°02'0 0.0
2017-Jul-11 03:28N 50°31' W 128°02'0 0.0
2017-Jul-11 02:58N 50°31' W 128°02'0 0.0
2017-Jul-11 02:28N 50°31' W 128°02'0 0.0
2017-Jul-11 01:58N 50°31' W 128°02'0 0.0
2017-Jul-11 01:28N 50°31' W 128°02'  
Track history (hours):
 
Tides and Currents Weather Stations Pressure Air Temp Water Temp Dewpoint Dewpoint Depression Visibility Wind Speed Wind Dir Waves Ship Positions

Sea Jay

Owner: Matheson, James K, Everett, WA. More information available from US FCC via Universal Licensing System and Coast Guard Vessel Documentation Center.

Last reported at 2017-Jul-20 19:29 UTC. Time now 2017-Aug-18 20:14 UTC.
Position N 51°50' W 127°59'.
Warning: this ship's position is 29 days out of date.

Length 21 m.

Type: Pleasure craft. MMSI: 367403070.

Date/timePositionNaut miles runAvg speedWind from/ knotsBaromVisibWave heightAir tempDewpointWater temp
2017-Jul-20 19:29N 51°50' W 127°59'4 8.9
2017-Jul-20 19:00N 51°46' W 128°00'1 2.7
2017-Jul-20 18:29N 51°45' W 128°02'0 0.0
2017-Jul-20 17:59N 51°45' W 128°02'0 0.0
2017-Jul-20 17:29N 51°45' W 128°02'0 0.0
2017-Jul-20 16:58N 51°45' W 128°02'0 0.1
2017-Jul-20 16:22N 51°45' W 128°02'0 0.0
2017-Jul-20 15:58N 51°45' W 128°02'0 0.0
2017-Jul-20 15:28N 51°45' W 128°02'0 0.1
2017-Jul-20 14:59N 51°45' W 128°02'0 0.0
2017-Jul-20 13:58N 51°45' W 128°02'0 0.0
2017-Jul-20 13:28N 51°45' W 128°02'0 0.0
2017-Jul-20 12:58N 51°45' W 128°02'0 0.0
2017-Jul-20 12:25N 51°45' W 128°02'0 0.0
2017-Jul-20 11:58N 51°45' W 128°02'0 0.0
2017-Jul-20 11:29N 51°45' W 128°02'0 0.0
2017-Jul-20 10:58N 51°45' W 128°02'0 0.0
2017-Jul-20 10:28N 51°45' W 128°02'0 0.0
2017-Jul-20 09:58N 51°45' W 128°02'0 0.0
2017-Jul-20 09:28N 51°45' W 128°02'0 0.0
2017-Jul-20 08:58N 51°45' W 128°02'0 0.0
2017-Jul-20 08:29N 51°45' W 128°02'0 0.0
2017-Jul-20 07:58N 51°45' W 128°02'0 0.0
2017-Jul-20 07:29N 51°45' W 128°02'0 0.0
2017-Jul-20 06:58N 51°45' W 128°02'0 0.0
2017-Jul-20 06:22N 51°45' W 128°02'0 0.0
2017-Jul-20 05:58N 51°45' W 128°02'0 0.0
2017-Jul-20 05:28N 51°45' W 128°02'0 0.0
2017-Jul-20 04:59N 51°45' W 128°02'0 0.0
2017-Jul-20 04:28N 51°45' W 128°02'0 0.0
2017-Jul-20 03:59N 51°45' W 128°02'0 0.1
2017-Jul-20 03:28N 51°45' W 128°02'0 0.0
2017-Jul-20 02:59N 51°45' W 128°02'0 0.0
2017-Jul-20 02:29N 51°45' W 128°02'0 0.0
2017-Jul-20 01:59N 51°45' W 128°02'0 0.0
2017-Jul-20 01:28N 51°45' W 128°02'0 0.0
2017-Jul-20 00:58N 51°45' W 128°02'0 0.0
2017-Jul-20 00:29N 51°45' W 128°02'0 0.0
2017-Jul-19 23:58N 51°45' W 128°02'0 0.0
2017-Jul-19 23:28N 51°45' W 128°02'0 0.0
2017-Jul-19 22:58N 51°45' W 128°02'0 0.0
2017-Jul-19 22:28N 51°45' W 128°02'0 0.0
2017-Jul-19 21:59N 51°45' W 128°02'0 0.0
2017-Jul-19 21:28N 51°45' W 128°02'0 0.3
2017-Jul-19 21:00N 51°45' W 128°02'4 7.3
2017-Jul-19 20:30N 51°42' W 127°58'5 9.3
2017-Jul-19 20:00N 51°38' W 127°55'5 9.2
2017-Jul-19 19:30N 51°34' W 127°51'5 9.5
2017-Jul-19 19:00N 51°30' W 127°48'5 9.0
2017-Jul-19 18:26N 51°27' W 127°41'5 0.3
2017-Jul-19 00:04N 51°30' W 127°36'0 7.3
2017-Jul-19 00:00N 51°29' W 127°36'610.9
2017-Jul-18 23:27N 51°25' W 127°43'18 9.2
2017-Jul-18 21:32N 51°08' W 127°45'110.4
2017-Jul-18 21:24N 51°07' W 127°44'510.9
2017-Jul-18 20:58N 51°03' W 127°39'511.0
2017-Jul-18 20:30N 50°59' W 127°34'611.2
2017-Jul-18 20:00N 50°55' W 127°28'611.5
2017-Jul-18 19:30N 50°50' W 127°23'  
2017-Jul-15 17:29N 50°45' W 127°18'4 8.8
2017-Jul-15 16:59N 50°49' W 127°22'4 8.8
2017-Jul-15 16:29N 50°52' W 127°26'4 7.7
2017-Jul-15 15:59N 50°54' W 127°31'1 0.9
2017-Jul-15 15:25N 50°54' W 127°32'0 0.0
2017-Jul-15 14:55N 50°54' W 127°32'0 0.0
2017-Jul-15 13:55N 50°54' W 127°32'0 0.0
2017-Jul-15 13:25N 50°54' W 127°32'0 0.0
2017-Jul-15 12:55N 50°54' W 127°32'0 0.0
2017-Jul-15 12:19N 50°54' W 127°32'0 0.0
2017-Jul-15 11:55N 50°54' W 127°32'0 0.0
2017-Jul-15 11:25N 50°54' W 127°32'0 0.0
2017-Jul-15 10:55N 50°54' W 127°32'0 0.0
2017-Jul-15 10:25N 50°54' W 127°32'0 0.0
2017-Jul-15 09:55N 50°54' W 127°32'0 0.0
2017-Jul-15 09:25N 50°54' W 127°32'0 0.0
2017-Jul-15 08:55N 50°54' W 127°32'0 0.0
2017-Jul-15 08:25N 50°54' W 127°32'0 0.0
2017-Jul-15 07:49N 50°54' W 127°32'0 0.0
2017-Jul-15 07:25N 50°54' W 127°32'0 0.0
2017-Jul-15 06:55N 50°54' W 127°32'0 0.0
2017-Jul-15 06:25N 50°54' W 127°32'0 0.0
2017-Jul-15 05:55N 50°54' W 127°32'0 0.0
2017-Jul-15 05:25N 50°54' W 127°32'0 0.0
2017-Jul-15 04:55N 50°54' W 127°32'0 0.0
2017-Jul-15 04:25N 50°54' W 127°32'0 0.0
2017-Jul-15 03:49N 50°54' W 127°32'0 0.0
2017-Jul-15 03:19N 50°54' W 127°32'0 0.0
2017-Jul-15 02:55N 50°54' W 127°32'0 0.0
2017-Jul-15 02:19N 50°54' W 127°32'0 0.0
2017-Jul-15 01:55N 50°54' W 127°32'0 0.0
2017-Jul-15 01:25N 50°54' W 127°32'0 0.0
2017-Jul-15 00:55N 50°54' W 127°32'0 0.0
2017-Jul-15 00:25N 50°54' W 127°32'0 0.0
2017-Jul-14 23:55N 50°54' W 127°32'0 0.0
2017-Jul-14 23:25N 50°54' W 127°32'0 0.0
2017-Jul-14 22:55N 50°54' W 127°32'0 0.0
2017-Jul-14 22:25N 50°54' W 127°32'0 0.0
2017-Jul-14 21:55N 50°54' W 127°32'0 0.0
2017-Jul-14 21:19N 50°54' W 127°32'0 0.0
2017-Jul-14 20:55N 50°54' W 127°32'0 0.0
2017-Jul-14 20:25N 50°54' W 127°32'0 0.0
2017-Jul-14 19:55N 50°54' W 127°32'0 0.0
2017-Jul-14 19:25N 50°54' W 127°32'0 0.0
2017-Jul-14 18:55N 50°54' W 127°32'0 0.0
2017-Jul-14 18:25N 50°54' W 127°32'0 0.0
2017-Jul-14 17:55N 50°54' W 127°32'0 0.0
2017-Jul-14 17:25N 50°54' W 127°32'0 0.0
2017-Jul-14 16:55N 50°54' W 127°32'0 0.0
2017-Jul-14 16:19N 50°54' W 127°32'0 0.0
2017-Jul-14 15:55N 50°54' W 127°32'0 0.0
2017-Jul-14 15:25N 50°54' W 127°32'0 0.0
2017-Jul-14 14:43N 50°54' W 127°32'0 0.0
2017-Jul-14 14:25N 50°54' W 127°32'0 0.0
2017-Jul-14 13:55N 50°54' W 127°32'0 0.0
2017-Jul-14 13:25N 50°54' W 127°32'0 0.0
2017-Jul-14 12:55N 50°54' W 127°32'0 0.0
2017-Jul-14 12:25N 50°54' W 127°32'0 0.0
2017-Jul-14 11:55N 50°54' W 127°32'0 0.0
2017-Jul-14 11:25N 50°54' W 127°32'0 0.0
2017-Jul-14 10:55N 50°54' W 127°32'0 0.0
2017-Jul-14 10:25N 50°54' W 127°32'0 0.0
2017-Jul-14 09:55N 50°54' W 127°32'0 0.0
2017-Jul-14 09:13N 50°54' W 127°32'0 0.0
2017-Jul-14 08:55N 50°54' W 127°32'0 0.0
2017-Jul-14 08:25N 50°54' W 127°32'0 0.0
2017-Jul-14 07:55N 50°54' W 127°32'0 0.0
2017-Jul-14 07:25N 50°54' W 127°32'0 0.0
2017-Jul-14 06:55N 50°54' W 127°32'0 0.0
2017-Jul-14 06:19N 50°54' W 127°32'0 0.0
2017-Jul-14 05:55N 50°54' W 127°32'0 0.0
2017-Jul-14 05:25N 50°54' W 127°32'0 0.0
2017-Jul-14 04:55N 50°54' W 127°32'0 0.0
2017-Jul-14 04:25N 50°54' W 127°32'0 0.0
2017-Jul-14 03:55N 50°54' W 127°32'0 0.0
2017-Jul-14 03:25N 50°54' W 127°32'0 0.0
2017-Jul-14 02:55N 50°54' W 127°32'0 0.0
2017-Jul-14 02:25N 50°54' W 127°32'0 0.0
2017-Jul-14 01:55N 50°54' W 127°32'0 0.0
2017-Jul-14 01:25N 50°54' W 127°32'0 0.0
2017-Jul-14 00:55N 50°54' W 127°32'0 0.0
2017-Jul-14 00:25N 50°54' W 127°32'0 0.0
2017-Jul-13 23:55N 50°54' W 127°32'0 0.0
2017-Jul-13 23:25N 50°54' W 127°32'0 0.0
2017-Jul-13 22:55N 50°54' W 127°32'0 0.0
2017-Jul-13 22:25N 50°54' W 127°32'0 0.5
2017-Jul-13 22:01N 50°54' W 127°32'3 5.0
2017-Jul-13 21:30N 50°55' W 127°36'4 8.5
2017-Jul-13 21:00N 50°55' W 127°43'  
2017-Jul-11 15:34N 50°31' W 128°02'0 0.0
2017-Jul-11 15:28N 50°31' W 128°02'0 0.0
2017-Jul-11 14:58N 50°31' W 128°02'0 0.0
2017-Jul-11 14:28N 50°31' W 128°02'0 0.0
2017-Jul-11 13:55N 50°31' W 128°02'0 0.0
2017-Jul-11 13:28N 50°31' W 128°02'0 0.0
2017-Jul-11 12:58N 50°31' W 128°02'0 0.0
2017-Jul-11 12:28N 50°31' W 128°02'0 0.0
2017-Jul-11 11:58N 50°31' W 128°02'0 0.0
2017-Jul-11 11:28N 50°31' W 128°02'0 0.0
2017-Jul-11 10:58N 50°31' W 128°02'0 0.0
2017-Jul-11 10:22N 50°31' W 128°02'0 0.0
2017-Jul-11 09:58N 50°31' W 128°02'0 0.0
2017-Jul-11 09:28N 50°31' W 128°02'0 0.0
2017-Jul-11 08:58N 50°31' W 128°02'0 0.0
2017-Jul-11 08:28N 50°31' W 128°02'0 0.0
2017-Jul-11 07:58N 50°31' W 128°02'0 0.0
2017-Jul-11 07:28N 50°31' W 128°02'0 0.0
2017-Jul-11 06:58N 50°31' W 128°02'0 0.0
2017-Jul-11 06:28N 50°31' W 128°02'0 0.0
2017-Jul-11 05:55N 50°31' W 128°02'0 0.0
2017-Jul-11 05:28N 50°31' W 128°02'0 0.0
2017-Jul-11 04:58N 50°31' W 128°02'0 0.0
2017-Jul-11 04:28N 50°31' W 128°02'0 0.0
2017-Jul-11 03:58N 50°31' W 128°02'0 0.0
2017-Jul-11 03:28N 50°31' W 128°02'0 0.0
2017-Jul-11 02:58N 50°31' W 128°02'0 0.0
2017-Jul-11 02:28N 50°31' W 128°02'0 0.0
2017-Jul-11 01:58N 50°31' W 128°02'0 0.0
2017-Jul-11 01:28N 50°31' W 128°02'  

Dump ship's entire track history